»·PEaware :: PIN016C FACT-YPPH

PIN016C :: FACT-YPPH

FLIGHT INFORMATION

Flight Status: Arrived
Operator: Unknown
More flights by this operator :: More flights under this callsign
Pilot: Stacy K. (11621)
Aircraft: AIRBUS A380-800
(A388)
More flights by this aircraft type
Origin: FACT Cape Town Intl
South Africa
Destination: YPPH Perth Intl
Australia
More flights between these airports :: More routes between these airports
Route: 3624S 3830S 4036S 4242S 4348S 4455S/N0486F350 4462S 4469S 4376S 4383S 4190S 4096S 38S02 35S08 33S13 PH
File this flight plan on PilotEdge
Remarks: PBN / A1B1C1D1L1O1S1S2 DOF / 180530 REG / N10145PN EET / FAJO0053 FIMM0326 YMMM0735 SEL / DEFK OPR / PIN RMK / TCAS SIMBRIEF
Altitude:
(Current/Filed)
33,000ft
Speed:
(Current/Filed)
491kts
Departed: 30-May-18 09:20 AM
Arrived: 30-May-18 04:34 PM
Distance/Time
Traveled:
4689nm/7:13
Distance/Time
To Go:
Arrived

Flight Plot

Page will automatically refresh every two minutes.

Flight plan parsing failed; only flown route is shown


Map Options




Map Legend


Flown Route
Filed Route
Departure Airport
Arrival Airport
Navaid (VOR, NDB)
Fix

Horizontal Profiles

Position Reports

Time Latitude Longitude Heading Altitude Ground
Speed
30-May-18 09:19 -39.896887 35.656745 114 33045ft 533kts
30-May-18 09:20 -39.950916 35.836666 114 33045ft 533kts
30-May-18 09:21 -40.005983 36.015872 117 33046ft 532kts
30-May-18 09:22 -40.069359 36.189803 118 33046ft 531kts
30-May-18 09:23 -40.133262 36.363443 118 33047ft 530kts
30-May-18 09:24 -40.197008 36.537888 119 33048ft 530kts
30-May-18 09:25 -40.260263 36.712044 118 33048ft 530kts
30-May-18 09:26 -40.323253 36.886378 118 33049ft 529kts
30-May-18 09:27 -40.385909 37.060890 118 33049ft 528kts
30-May-18 09:28 -40.448140 37.235583 118 33050ft 528kts
30-May-18 09:29 -40.509827 37.410148 118 33050ft 527kts
30-May-18 09:30 -40.571336 37.584952 118 33051ft 527kts
30-May-18 09:31 -40.632609 37.760122 118 33051ft 526kts
30-May-18 09:32 -40.693531 37.935334 118 33052ft 527kts
30-May-18 09:33 -40.753931 38.110806 117 33052ft 525kts
30-May-18 09:34 -40.813973 38.286256 117 33052ft 525kts
30-May-18 09:35 -40.873983 38.462819 117 33053ft 526kts
30-May-18 09:36 -40.933591 38.639059 117 33053ft 526kts
30-May-18 09:37 -40.992874 38.815692 117 33054ft 526kts
30-May-18 09:38 -41.051903 38.992838 117 33054ft 526kts
30-May-18 09:39 -41.110595 39.170516 116 33055ft 526kts
30-May-18 09:40 -41.169089 39.348400 116 33055ft 527kts
30-May-18 09:41 -41.227247 39.526693 116 33056ft 526kts
30-May-18 09:42 -41.285410 39.705872 116 33056ft 527kts
30-May-18 09:43 -41.352665 39.914427 115 33122ft 526kts
30-May-18 09:44 -41.400639 40.063785 115 33129ft 527kts
30-May-18 09:45 -41.458534 40.242959 115 33129ft 526kts
30-May-18 09:46 -41.516129 40.422342 115 33128ft 527kts
30-May-18 09:47 -41.572809 40.602617 114 33128ft 526kts
30-May-18 09:48 -41.629030 40.783325 114 33128ft 527kts
30-May-18 09:49 -41.684976 40.964530 114 33128ft 528kts
30-May-18 09:50 -41.731625 41.115922 113 33128ft 527kts
30-May-18 09:51 -41.787799 41.297334 113 33128ft 527kts
30-May-18 09:52 -41.852498 41.509897 112 33128ft 527kts
30-May-18 09:53 -41.907232 41.692004 112 33127ft 526kts
30-May-18 09:54 -41.961929 41.874292 112 33127ft 526kts
30-May-18 09:55 -42.012037 42.058919 106 33128ft 526kts
30-May-18 09:56 -42.049986 42.249735 104 33127ft 527kts
30-May-18 09:57 -42.080206 42.408431 104 33127ft 527kts
30-May-18 09:58 -42.116618 42.600472 104 33127ft 528kts
30-May-18 09:59 -42.152758 42.792313 103 33127ft 529kts
30-May-18 10:00 -42.188258 42.985176 102 33127ft 530kts
30-May-18 10:01 -42.223409 43.178563 102 33126ft 532kts
30-May-18 10:02 -42.258807 43.372234 102 33126ft 532kts
30-May-18 10:03 -42.294502 43.566023 102 33126ft 532kts
30-May-18 10:04 -42.329362 43.760374 101 33122ft 532kts
30-May-18 10:05 -42.363817 43.954932 101 33126ft 533kts
30-May-18 10:06 -42.397974 44.150569 101 33126ft 533kts
30-May-18 10:07 -42.431501 44.345918 101 33126ft 534kts
30-May-18 10:08 -42.464993 44.541875 101 33125ft 535kts
30-May-18 10:09 -42.498519 44.738266 100 33125ft 536kts
30-May-18 10:10 -42.532116 44.935261 100 33125ft 537kts
30-May-18 10:11 -42.565343 45.133118 100 33125ft 539kts
30-May-18 10:12 -42.597570 45.331709 99 33125ft 540kts
30-May-18 10:13 -42.629682 45.531624 99 33125ft 541kts
30-May-18 10:14 -42.661606 45.731207 99 33125ft 542kts
30-May-18 10:15 -42.693384 45.929532 100 33124ft 533kts
30-May-18 10:16 -42.724384 46.126759 100 33124ft 534kts
30-May-18 10:17 -42.755511 46.324563 100 33124ft 535kts
30-May-18 10:18 -42.786168 46.522929 99 33118ft 536kts
30-May-18 10:19 -42.816042 46.721967 99 33118ft 537kts
30-May-18 10:20 -42.845546 46.921721 99 33118ft 538kts
30-May-18 10:21 -42.874723 47.122018 98 33113ft 540kts
30-May-18 10:22 -42.903662 47.322971 98 33113ft 541kts
30-May-18 10:23 -42.932768 47.524993 98 33113ft 542kts
30-May-18 10:24 -42.961841 47.726751 98 33113ft 542kts
30-May-18 10:25 -42.990673 47.929071 98 33113ft 543kts
30-May-18 10:26 -43.022875 48.131152 100 33114ft 548kts
30-May-18 10:27 -43.058372 48.333683 100 33113ft 548kts
30-May-18 10:28 -43.093329 48.536383 100 33113ft 548kts
30-May-18 10:29 -43.127758 48.739336 100 33113ft 548kts
30-May-18 10:30 -43.162028 48.943152 100 33113ft 549kts
30-May-18 10:31 -43.195808 49.147943 100 33113ft 549kts
30-May-18 10:32 -43.229377 49.352331 100 33113ft 550kts
30-May-18 10:33 -43.262459 49.556948 100 33113ft 550kts
30-May-18 10:34 -43.295286 49.761772 100 33113ft 550kts
30-May-18 10:35 -43.327829 49.966906 100 33113ft 550kts
30-May-18 10:36 -43.360106 50.172485 99 33113ft 551kts
30-May-18 10:37 -43.391771 50.378629 99 33113ft 551kts
30-May-18 10:38 -43.422986 50.585310 99 33113ft 552kts
30-May-18 10:39 -43.453793 50.792870 99 33113ft 553kts
30-May-18 10:40 -43.484348 51.000211 99 33113ft 553kts
30-May-18 10:41 -43.514544 51.207869 99 33113ft 553kts
30-May-18 10:42 -43.544550 51.415611 99 33113ft 553kts
30-May-18 10:43 -43.574105 51.623521 98 33113ft 552kts
30-May-18 10:44 -43.603160 51.830923 99 33113ft 551kts
30-May-18 10:45 -43.632036 52.038761 98 33113ft 551kts
30-May-18 10:46 -43.660381 52.246701 98 33113ft 551kts
30-May-18 10:47 -43.688569 52.455478 98 33412ft 556kts
30-May-18 10:48 -43.716814 52.665262 98 34576ft 555kts
30-May-18 10:49 -43.744837 52.875649 98 35553ft 557kts
30-May-18 10:50 -43.772377 53.087027 98 36462ft 557kts
30-May-18 10:51 -43.799315 53.298363 98 37105ft 559kts
30-May-18 10:52 -43.825792 53.509548 98 37112ft 554kts
30-May-18 10:53 -43.851947 53.719697 98 37111ft 554kts
30-May-18 10:54 -43.877587 53.930377 97 37112ft 555kts
30-May-18 10:55 -43.902459 54.141252 97 37112ft 554kts
30-May-18 10:56 -43.926907 54.352254 97 37112ft 555kts
30-May-18 10:57 -43.951354 54.563531 97 37111ft 555kts
30-May-18 10:58 -43.975385 54.775148 97 37112ft 556kts
30-May-18 10:59 -43.998640 54.987347 94 37111ft 556kts
30-May-18 11:00 -44.008006 55.201539 89 37112ft 556kts
30-May-18 11:01 -44.013546 55.416721 89 37111ft 556kts
30-May-18 11:02 -44.018432 55.631307 89 37120ft 556kts
30-May-18 11:03 -44.023058 55.845946 89 37121ft 556kts
30-May-18 11:04 -44.027561 56.060417 89 37121ft 556kts
30-May-18 11:05 -44.031961 56.275019 89 37122ft 556kts
30-May-18 11:06 -44.036219 56.489962 89 37122ft 557kts
30-May-18 11:07 -44.040181 56.705557 89 37122ft 558kts
30-May-18 11:08 -44.043548 56.921279 89 37122ft 559kts
30-May-18 11:09 -44.046419 57.138158 89 37122ft 559kts
30-May-18 11:10 -44.048838 57.354361 89 37122ft 559kts
30-May-18 11:11 -44.050804 57.570548 88 37122ft 559kts
30-May-18 11:12 -44.052304 57.786859 88 37103ft 560kts
30-May-18 11:13 -44.053175 58.003075 88 37099ft 559kts
30-May-18 11:14 -44.053483 58.219299 88 37099ft 560kts
30-May-18 11:15 -44.053336 58.435554 88 37099ft 560kts
30-May-18 11:16 -44.052790 58.652333 88 37099ft 561kts
30-May-18 11:17 -44.052193 58.869341 88 37099ft 562kts
30-May-18 11:18 -44.051041 59.086434 88 37099ft 562kts
30-May-18 11:19 -44.049738 59.303520 87 37098ft 561kts
30-May-18 11:20 -44.047964 59.521095 87 37092ft 561kts
30-May-18 11:21 -44.045796 59.737677 87 37092ft 560kts
30-May-18 11:22 -44.043490 59.953775 87 37091ft 559kts
30-May-18 11:23 -44.041127 60.169872 87 37091ft 559kts
30-May-18 11:24 -44.038019 60.385846 87 37101ft 560kts
30-May-18 11:25 -44.034169 60.602431 87 37103ft 561kts
30-May-18 11:26 -44.029742 60.819280 87 37103ft 562kts
30-May-18 11:27 -44.024951 61.036420 86 37103ft 562kts
30-May-18 11:28 -44.019928 61.254194 86 37103ft 562kts
30-May-18 11:29 -44.014252 61.470833 87 37102ft 561kts
30-May-18 11:30 -44.008323 61.687179 86 37102ft 560kts
30-May-18 11:31 -44.001973 61.902918 86 37102ft 559kts
30-May-18 11:32 -44.001687 62.118910 91 37102ft 559kts
30-May-18 11:33 -44.008498 62.334890 92 37102ft 560kts
30-May-18 11:34 -44.014958 62.551255 92 37102ft 561kts
30-May-18 11:35 -44.020145 62.768207 91 37101ft 563kts
30-May-18 11:36 -44.025137 62.985687 91 37101ft 564kts
30-May-18 11:37 -44.029704 63.203170 91 37101ft 563kts
30-May-18 11:38 -44.033735 63.421381 91 37087ft 563kts
30-May-18 11:39 -44.037548 63.638558 91 37052ft 562kts
30-May-18 11:40 -44.041292 63.855472 91 37051ft 561kts
30-May-18 11:41 -44.044823 64.072434 91 37051ft 561kts
30-May-18 11:42 -44.047160 64.289370 90 37033ft 562kts
30-May-18 11:43 -44.048767 64.506712 90 37036ft 563kts
30-May-18 11:44 -44.050026 64.724439 91 37044ft 564kts
30-May-18 11:45 -44.051274 64.942579 90 37039ft 564kts
30-May-18 11:46 -44.052095 65.161472 90 37038ft 565kts
30-May-18 11:47 -44.052526 65.379449 90 37038ft 564kts
30-May-18 11:48 -44.052646 65.597116 90 37038ft 563kts
30-May-18 11:49 -44.052722 65.814496 90 37038ft 562kts
30-May-18 11:50 -44.052291 66.031616 90 37038ft 562kts
30-May-18 11:51 -44.050670 66.248539 89 37037ft 562kts
30-May-18 11:52 -44.048643 66.466688 90 37023ft 563kts
30-May-18 11:53 -44.046506 66.684300 89 37022ft 564kts
30-May-18 11:54 -44.043966 66.902504 89 37022ft 565kts
30-May-18 11:55 -44.041130 67.120994 89 37022ft 566kts
30-May-18 11:56 -44.038151 67.339352 89 37021ft 565kts
30-May-18 11:57 -44.035013 67.557355 89 37021ft 564kts
30-May-18 11:58 -44.031220 67.775713 89 37021ft 563kts
30-May-18 11:59 -44.026252 67.992865 89 37020ft 562kts
30-May-18 12:00 -44.020827 68.209954 89 37020ft 562kts
30-May-18 12:01 -44.015295 68.427123 89 37020ft 564kts
30-May-18 12:02 -44.009792 68.644752 89 37020ft 564kts
30-May-18 12:03 -44.004264 68.862935 89 37019ft 565kts
30-May-18 12:04 -43.992559 69.080432 82 37020ft 562kts
30-May-18 12:05 -43.968983 69.294267 81 37018ft 560kts
30-May-18 12:06 -43.948511 69.472433 81 37018ft 561kts
30-May-18 12:07 -43.923250 69.686307 80 37018ft 563kts
30-May-18 12:08 -43.897368 69.900379 80 37017ft 564kts
30-May-18 12:09 -43.866657 70.150751 80 37016ft 564kts
30-May-18 12:10 -43.840325 70.364560 80 37013ft 563kts
30-May-18 12:11 -43.814074 70.577876 80 37012ft 561kts
30-May-18 12:12 -43.787866 70.790367 80 37012ft 560kts
30-May-18 12:13 -43.761135 71.002157 80 37016ft 559kts
30-May-18 12:14 -43.737775 71.178528 80 37018ft 559kts
30-May-18 12:15 -43.709774 71.389555 80 37017ft 559kts
30-May-18 12:16 -43.681355 71.600906 80 37017ft 560kts
30-May-18 12:17 -43.648234 71.848238 80 37016ft 561kts
30-May-18 12:18 -43.624423 72.024643 79 37016ft 561kts
30-May-18 12:19 -43.594499 72.235782 79 37015ft 561kts
30-May-18 12:20 -43.564571 72.446449 79 37016ft 559kts
30-May-18 12:21 -43.534951 72.656494 79 37019ft 558kts
30-May-18 12:22 -43.505019 72.865676 79 37019ft 556kts
30-May-18 12:23 -43.473814 73.073944 78 37018ft 556kts
30-May-18 12:24 -43.442373 73.282880 78 37018ft 556kts
30-May-18 12:25 -43.411261 73.491038 79 37017ft 556kts
30-May-18 12:26 -43.379631 73.699386 78 37017ft 557kts
30-May-18 12:27 -43.346960 73.907373 78 37016ft 557kts
30-May-18 12:28 -43.314303 74.115087 78 37015ft 557kts
30-May-18 12:29 -43.281888 74.322570 78 37006ft 556kts
30-May-18 12:30 -43.248251 74.529364 77 37004ft 555kts
30-May-18 12:31 -43.214324 74.735432 77 37003ft 554kts
30-May-18 12:32 -43.180299 74.941766 77 37003ft 553kts
30-May-18 12:33 -43.146580 75.147444 77 37002ft 553kts
30-May-18 12:34 -43.111743 75.351892 77 37002ft 552kts
30-May-18 12:35 -43.076369 75.556773 77 37001ft 552kts
30-May-18 12:36 -43.041081 75.761179 77 37001ft 552kts
30-May-18 12:37 -43.006009 75.965290 77 37000ft 551kts
30-May-18 12:38 -43.000608 76.172953 95 37001ft 547kts
30-May-18 12:39 -43.008341 76.380385 95 37012ft 547kts
30-May-18 12:40 -43.015350 76.587879 95 37034ft 547kts
30-May-18 12:41 -43.020657 76.795543 94 37034ft 548kts
30-May-18 12:42 -43.025642 77.003832 94 37033ft 548kts
30-May-18 12:43 -43.030598 77.211862 94 37033ft 548kts
30-May-18 12:44 -43.034484 77.420652 94 37041ft 548kts
30-May-18 12:45 -43.037608 77.628828 94 37072ft 549kts
30-May-18 12:46 -43.040643 77.837850 94 37088ft 549kts
30-May-18 12:47 -43.043806 78.046274 94 37110ft 549kts
30-May-18 12:48 -43.046833 78.254815 94 37110ft 549kts
30-May-18 12:49 -43.048589 78.463658 93 37110ft 549kts
30-May-18 12:50 -43.049808 78.672342 93 37110ft 549kts
30-May-18 12:51 -43.051122 78.881696 93 37111ft 549kts
30-May-18 12:52 -43.052439 79.090293 93 37111ft 549kts
30-May-18 12:53 -43.053316 79.298932 93 37111ft 550kts
30-May-18 12:54 -43.052927 79.507890 93 37111ft 550kts
30-May-18 12:55 -43.052461 79.716982 93 37111ft 550kts
30-May-18 12:56 -43.052220 79.925974 93 37111ft 550kts
30-May-18 12:57 -43.051867 80.134932 93 37111ft 550kts
30-May-18 12:58 -43.050043 80.344242 92 37111ft 551kts
30-May-18 12:59 -43.047882 80.553412 92 37112ft 550kts
30-May-18 13:00 -43.045940 80.763219 92 37112ft 550kts
30-May-18 13:01 -43.044128 80.972513 92 37112ft 550kts
30-May-18 13:02 -43.040887 81.180961 92 37112ft 551kts
30-May-18 13:03 -43.037242 81.390095 92 37112ft 550kts
30-May-18 13:04 -43.033495 81.598973 92 37112ft 550kts
30-May-18 13:05 -43.029980 81.808400 92 37112ft 550kts
30-May-18 13:06 -43.025604 82.017194 91 37113ft 550kts
30-May-18 13:07 -43.020571 82.226277 91 37113ft 551kts
30-May-18 13:08 -43.015270 82.435234 91 37113ft 550kts
30-May-18 13:09 -43.010234 82.644161 91 37113ft 551kts
30-May-18 13:10 -43.004349 82.853363 91 37113ft 551kts
30-May-18 13:11 -42.986431 83.061197 76 37116ft 557kts
30-May-18 13:12 -42.938202 83.262235 71 37114ft 558kts
30-May-18 13:13 -42.886444 83.461877 71 37111ft 558kts
30-May-18 13:14 -42.834751 83.660981 71 37109ft 557kts
30-May-18 13:15 -42.783311 83.860381 72 37109ft 556kts
30-May-18 13:16 -42.732425 84.058819 72 37109ft 556kts
30-May-18 13:17 -42.681267 84.256856 71 37109ft 555kts
30-May-18 13:18 -42.629118 84.454249 71 37109ft 555kts
30-May-18 13:19 -42.576903 84.651685 72 37109ft 556kts
30-May-18 13:20 -42.524884 84.849025 71 37115ft 557kts
30-May-18 13:21 -42.471532 85.046862 71 37115ft 557kts
30-May-18 13:22 -42.418262 85.243620 71 37102ft 557kts
30-May-18 13:23 -42.365169 85.440188 72 37101ft 556kts
30-May-18 13:24 -42.311464 85.635760 71 37101ft 555kts
30-May-18 13:25 -42.257195 85.830503 71 37100ft 554kts
30-May-18 13:26 -42.203027 86.024881 71 37099ft 553kts
30-May-18 13:27 -42.148866 86.219078 71 37100ft 554kts
30-May-18 13:28 -42.093626 86.412825 71 37099ft 555kts
30-May-18 13:29 -42.038450 86.607234 71 37099ft 557kts
30-May-18 13:30 -41.982243 86.801385 71 37099ft 555kts
30-May-18 13:31 -41.925990 86.994545 71 37098ft 553kts
30-May-18 13:32 -41.870101 87.186859 71 37098ft 554kts
30-May-18 13:33 -41.813528 87.379229 70 37097ft 555kts
30-May-18 13:34 -41.756209 87.571632 70 37097ft 557kts
30-May-18 13:35 -41.699081 87.764560 70 37097ft 558kts
30-May-18 13:36 -41.640879 87.957055 70 37096ft 558kts
30-May-18 13:37 -41.582651 88.149416 70 37109ft 559kts
30-May-18 13:38 -41.524228 88.342132 70 37108ft 558kts
30-May-18 13:39 -41.465050 88.533225 70 37108ft 557kts
30-May-18 13:40 -41.406185 88.723694 70 37107ft 555kts
30-May-18 13:41 -41.347187 88.913571 70 37107ft 555kts
30-May-18 13:42 -41.287318 89.102885 70 37104ft 554kts
30-May-18 13:43 -41.227713 89.291855 70 37103ft 554kts
30-May-18 13:44 -41.167543 89.480342 69 37102ft 555kts
30-May-18 13:45 -41.106998 89.668552 69 37102ft 555kts
30-May-18 13:46 -41.046706 89.856376 69 37101ft 554kts
30-May-18 13:47 -40.991480 90.046265 80 37097ft 548kts
30-May-18 13:48 -40.962784 90.242992 85 37095ft 543kts
30-May-18 13:49 -40.936410 90.439707 85 37094ft 544kts
30-May-18 13:50 -40.909183 90.636423 84 37094ft 544kts
30-May-18 13:51 -40.880832 90.833026 84 37093ft 545kts
30-May-18 13:52 -40.852446 91.030281 84 37092ft 545kts
30-May-18 13:53 -40.822876 91.226381 84 37093ft 545kts
30-May-18 13:54 -40.793182 91.422657 84 37092ft 546kts
30-May-18 13:55 -40.763561 91.619000 83 37092ft 546kts
30-May-18 13:56 -40.732928 91.814941 83 37091ft 545kts
30-May-18 13:57 -40.702631 92.010660 83 37090ft 545kts
30-May-18 13:58 -40.671952 92.206351 83 37090ft 546kts
30-May-18 13:59 -40.640186 92.401744 83 37089ft 547kts
30-May-18 14:00 -40.608619 92.597368 83 37088ft 546kts
30-May-18 14:01 -40.576619 92.793518 83 37087ft 547kts
30-May-18 14:02 -40.543959 92.988996 83 37087ft 548kts
30-May-18 14:03 -40.511452 93.184369 83 37086ft 547kts
30-May-18 14:04 -40.478555 93.379612 82 37085ft 547kts
30-May-18 14:05 -40.444901 93.574558 82 37084ft 548kts
30-May-18 14:06 -40.411591 93.769246 83 37084ft 547kts
30-May-18 14:07 -40.377458 93.963610 82 37083ft 547kts
30-May-18 14:08 -40.342892 94.158306 82 37085ft 546kts
30-May-18 14:09 -40.308641 94.352386 82 37084ft 547kts
30-May-18 14:10 -40.273372 94.546253 82 37088ft 548kts
30-May-18 14:11 -40.238198 94.740447 82 37087ft 548kts
30-May-18 14:12 -40.202424 94.934311 81 37086ft 548kts
30-May-18 14:13 -40.166149 95.128080 82 37085ft 549kts
30-May-18 14:14 -40.130062 95.322145 81 37085ft 550kts
30-May-18 14:15 -40.093019 95.516121 81 37084ft 549kts
30-May-18 14:16 -40.056302 95.709445 81 37083ft 549kts
30-May-18 14:17 -40.018799 95.902524 81 37082ft 549kts
30-May-18 14:18 -39.973194 96.094130 73 37081ft 555kts
30-May-18 14:19 -39.916726 96.281549 72 37080ft 556kts
30-May-18 14:20 -39.859599 96.468612 72 37079ft 557kts
30-May-18 14:21 -39.801898 96.655353 72 37078ft 556kts
30-May-18 14:22 -39.744469 96.842168 72 37075ft 556kts
30-May-18 14:23 -39.686573 97.028579 71 37034ft 557kts
30-May-18 14:24 -39.628722 97.215155 71 37033ft 558kts
30-May-18 14:25 -39.570084 97.401438 71 37033ft 558kts
30-May-18 14:26 -39.511269 97.587708 71 37032ft 559kts
30-May-18 14:27 -39.452236 97.773705 71 37031ft 559kts
30-May-18 14:28 -39.392417 97.959805 71 37031ft 559kts
30-May-18 14:29 -39.342939 98.114236 70 37030ft 559kts
30-May-18 14:30 -39.282832 98.299305 70 37030ft 560kts
30-May-18 14:31 -39.222521 98.485123 70 37029ft 559kts
30-May-18 14:32 -39.161748 98.669655 70 37029ft 560kts
30-May-18 14:33 -39.100908 98.854215 69 37028ft 560kts
30-May-18 14:34 -39.039612 99.038586 69 37027ft 560kts
30-May-18 14:35 -38.978138 99.222425 69 37027ft 560kts
30-May-18 14:36 -38.916244 99.406370 69 37026ft 561kts
30-May-18 14:37 -38.853993 99.590061 68 37026ft 562kts
30-May-18 14:38 -38.791536 99.773481 69 37025ft 561kts
30-May-18 14:39 -38.728673 99.956413 68 37024ft 561kts
30-May-18 14:40 -38.665635 100.139374 68 37023ft 561kts
30-May-18 14:41 -38.601886 100.321448 67 37023ft 562kts
30-May-18 14:42 -38.538325 100.503792 67 37022ft 562kts
30-May-18 14:43 -38.473914 100.686241 67 37021ft 562kts
30-May-18 14:44 -38.409634 100.868032 67 37021ft 562kts
30-May-18 14:45 -38.344921 101.049686 67 37018ft 563kts
30-May-18 14:46 -38.280002 101.231182 67 37018ft 564kts
30-May-18 14:47 -38.214408 101.412407 66 37017ft 564kts
30-May-18 14:48 -38.148810 101.593743 66 37016ft 565kts
30-May-18 14:49 -38.082397 101.774561 66 37016ft 565kts
30-May-18 14:50 -38.016219 101.955622 65 37034ft 565kts
30-May-18 14:51 -37.941555 102.131081 60 37034ft 566kts
30-May-18 14:52 -37.862164 102.303453 59 37033ft 566kts
30-May-18 14:53 -37.782107 102.474772 59 37032ft 566kts
30-May-18 14:54 -37.702326 102.646029 59 37032ft 565kts
30-May-18 14:55 -37.622059 102.817418 58 37031ft 565kts
30-May-18 14:56 -37.542179 102.988103 58 37030ft 565kts
30-May-18 14:57 -37.461793 103.158148 58 37030ft 566kts
30-May-18 14:58 -37.381264 103.328224 57 37029ft 565kts
30-May-18 14:59 -37.300301 103.497714 57 37028ft 565kts
30-May-18 15:00 -37.219546 103.667223 57 37027ft 565kts
30-May-18 15:01 -37.138074 103.835634 57 37027ft 565kts
30-May-18 15:02 -37.056787 104.004564 57 37026ft 565kts
30-May-18 15:03 -36.975437 104.171997 56 37025ft 563kts
30-May-18 15:04 -36.879854 104.366489 55 37024ft 563kts
30-May-18 15:05 -36.811816 104.505761 55 37024ft 563kts
30-May-18 15:06 -36.729586 104.672057 55 37023ft 563kts
30-May-18 15:07 -36.647604 104.837812 55 37022ft 562kts
30-May-18 15:08 -36.565123 105.002738 54 37021ft 561kts
30-May-18 15:09 -36.482875 105.167539 54 37020ft 560kts
30-May-18 15:10 -36.400044 105.331358 54 37018ft 560kts
30-May-18 15:11 -36.317477 105.495252 54 37018ft 560kts
30-May-18 15:12 -36.234355 105.658284 53 37017ft 559kts
30-May-18 15:13 -36.151147 105.821583 53 37016ft 559kts
30-May-18 15:14 -36.067712 105.983610 53 37015ft 559kts
30-May-18 15:15 -35.984485 106.145878 53 37015ft 559kts
30-May-18 15:16 -35.900661 106.307067 52 37022ft 558kts
30-May-18 15:17 -35.816611 106.467907 52 37021ft 558kts
30-May-18 15:18 -35.733147 106.628411 52 37020ft 556kts
30-May-18 15:19 -35.648893 106.788312 52 37018ft 554kts
30-May-18 15:20 -35.565320 106.947249 51 36994ft 553kts
30-May-18 15:21 -35.481405 107.105058 51 36992ft 551kts
30-May-18 15:22 -35.397924 107.262204 51 36991ft 550kts
30-May-18 15:23 -35.313891 107.418599 51 36892ft 549kts
30-May-18 15:24 -35.230151 107.574637 51 36889ft 548kts
30-May-18 15:25 -35.146391 107.730044 50 36889ft 548kts
30-May-18 15:26 -35.061949 107.884981 50 36889ft 548kts
30-May-18 15:27 -34.982047 108.043489 58 36891ft 551kts
30-May-18 15:28 -34.917910 108.214002 60 36889ft 552kts
30-May-18 15:29 -34.855389 108.384663 60 36889ft 551kts
30-May-18 15:30 -34.791805 108.554324 60 36889ft 551kts
30-May-18 15:31 -34.728343 108.723779 60 36889ft 550kts
30-May-18 15:32 -34.664234 108.892287 59 36889ft 549kts
30-May-18 15:33 -34.600093 109.060313 59 36890ft 548kts
30-May-18 15:34 -34.536043 109.228250 59 36890ft 548kts
30-May-18 15:35 -34.471219 109.395182 59 36890ft 547kts
30-May-18 15:36 -34.406594 109.562010 59 36890ft 548kts
30-May-18 15:37 -34.341878 109.728960 58 36890ft 547kts
30-May-18 15:38 -34.276394 109.895004 58 36891ft 547kts
30-May-18 15:39 -34.210827 110.060834 58 36891ft 547kts
30-May-18 15:40 -34.145509 110.226811 58 36891ft 547kts
30-May-18 15:41 -34.079896 110.392482 58 36892ft 545kts
30-May-18 15:42 -34.013701 110.556756 58 36892ft 544kts
30-May-18 15:43 -33.947536 110.721256 59 36893ft 548kts
30-May-18 15:44 -33.881180 110.885890 58 36893ft 546kts
30-May-18 15:45 -33.814934 111.049305 58 36895ft 545kts
30-May-18 15:46 -33.748511 111.212665 58 36895ft 543kts
30-May-18 15:47 -33.682321 111.375606 59 36895ft 542kts
30-May-18 15:48 -33.615635 111.538095 58 36896ft 540kts
30-May-18 15:49 -33.548730 111.698545 58 36897ft 539kts
30-May-18 15:50 -33.481656 111.859227 58 36898ft 539kts
30-May-18 15:51 -33.414878 112.019772 58 36899ft 539kts
30-May-18 15:52 -33.348271 112.179868 58 36900ft 538kts
30-May-18 15:53 -33.281524 112.340081 58 36901ft 538kts
30-May-18 15:54 -33.213949 112.499000 58 36901ft 539kts
30-May-18 15:55 -33.145890 112.658613 58 36903ft 539kts
30-May-18 15:56 -33.077413 112.817742 58 36905ft 539kts
30-May-18 15:57 -33.008905 112.976418 57 36905ft 538kts
30-May-18 15:58 -32.932363 113.108962 47 36908ft 531kts
30-May-18 15:59 -32.842198 113.247672 47 36908ft 531kts
30-May-18 16:00 -32.751931 113.386704 47 36911ft 531kts
30-May-18 16:01 -32.661763 113.525894 47 36618ft 530kts
30-May-18 16:02 -32.574472 113.660000 47 34841ft 498kts
30-May-18 16:03 -32.491691 113.786849 47 33043ft 477kts
30-May-18 16:04 -32.410991 113.909646 46 31238ft 464kts
30-May-18 16:05 -32.334016 114.027317 45 29440ft 441kts
30-May-18 16:06 -32.259409 114.140873 45 27677ft 434kts
30-May-18 16:07 -32.185957 114.253013 46 26077ft 429kts
30-May-18 16:08 -32.128814 114.339706 46 24819ft 422kts
30-May-18 16:09 -32.056518 114.448026 46 23215ft 415kts
30-May-18 16:10 -31.986069 114.553251 46 21616ft 404kts
30-May-18 16:11 -31.917431 114.656017 46 20017ft 393kts
30-May-18 16:12 -31.850557 114.755954 46 18416ft 384kts
30-May-18 16:13 -31.785383 114.853369 46 16817ft 374kts
30-May-18 16:14 -31.766099 114.971650 94 15305ft 381kts
30-May-18 16:15 -31.781821 115.091273 99 13895ft 358kts
30-May-18 16:16 -31.799564 115.200904 99 12467ft 324kts
30-May-18 16:17 -31.818765 115.303457 104 11133ft 317kts
30-May-18 16:18 -31.841652 115.401824 104 9917ft 304kts
30-May-18 16:19 -31.864054 115.496094 112 8712ft 299kts
30-May-18 16:20 -31.925358 115.560540 152 7550ft 301kts
30-May-18 16:21 -31.965700 115.588423 154 6814ft 291kts
30-May-18 16:22 -32.035365 115.634024 155 5593ft 274kts
30-May-18 16:23 -32.099356 115.675453 154 4488ft 268kts
30-May-18 16:24 -32.160508 115.714720 155 3630ft 230kts
30-May-18 16:25 -32.214504 115.749381 155 3080ft 225kts
30-May-18 16:26 -32.239070 115.806703 79 2977ft 197kts
30-May-18 16:27 -32.222399 115.862171 40 2954ft 163kts
30-May-18 16:28 -32.185091 115.892051 12 3008ft 165kts
30-May-18 16:29 -32.142015 115.905997 6 3012ft 162kts
30-May-18 16:30 -32.098511 115.918749 7 2794ft 164kts
30-May-18 16:31 -32.055911 115.931357 9 2064ft 150kts
30-May-18 16:32 -32.012509 115.943985 13 1193ft 159kts
30-May-18 16:33 -31.971428 115.955944 14 369ft 145kts
30-May-18 16:34 -31.943811 115.964044 14 85ft 34kts
30-May-18 16:35 -31.941521 115.963826 320 85ft 1kts
30-May-18 16:36 -31.939960 115.962305 320 85ft 12kts
30-May-18 16:37 -31.937160 115.961120 343 85ft 14kts
30-May-18 16:38 -31.933733 115.962094 28 85ft 1kts
30-May-18 16:39 -31.932199 115.961973 1 85ft 11kts
30-May-18 16:40 -31.934040 115.963482 156 85ft 18kts
30-May-18 16:41 -31.935753 115.969331 59 85ft 20kts
30-May-18 16:42 -31.938585 115.973280 160 85ft 15kts
30-May-18 16:43 -31.939994 115.973617 155 85ft 0kts
30-May-18 16:44 -31.939994 115.973617 155 85ft 0kts
30-May-18 16:45 -31.940165 115.973694 153 85ft 0kts
30-May-18 16:46 -31.940165 115.973694 153 85ft 0kts
30-May-18 16:47 -31.940165 115.973694 153 85ft 0kts
30-May-18 16:48 -31.940165 115.973694 153 85ft 0kts

Navigation Log

Ident Type
Flight plan parsing failed, navigation log unavailable